sensor_id;sensor_type;location;lat;lon;timestamp;P1;durP1;ratioP1;P2;durP2;ratioP2
32214;SDS011;18708;53.124;23.190;2024-03-29T00:00:57;21.33;;;14.65;;
32214;SDS011;18708;53.124;23.190;2024-03-29T00:03:24;24.67;;;16.40;;
32214;SDS011;18708;53.124;23.190;2024-03-29T00:05:50;18.65;;;14.10;;
32214;SDS011;18708;53.124;23.190;2024-03-29T00:08:16;21.40;;;14.75;;
32214;SDS011;18708;53.124;23.190;2024-03-29T00:10:41;21.48;;;15.20;;
32214;SDS011;18708;53.124;23.190;2024-03-29T00:13:07;15.25;;;12.25;;
32214;SDS011;18708;53.124;23.190;2024-03-29T00:15:33;17.10;;;13.30;;
32214;SDS011;18708;53.124;23.190;2024-03-29T00:17:59;17.30;;;12.68;;
32214;SDS011;18708;53.124;23.190;2024-03-29T00:20:25;14.77;;;11.68;;
32214;SDS011;18708;53.124;23.190;2024-03-29T00:22:50;13.07;;;10.07;;
32214;SDS011;18708;53.124;23.190;2024-03-29T00:25:19;18.33;;;14.02;;
32214;SDS011;18708;53.124;23.190;2024-03-29T00:27:45;14.50;;;11.38;;
32214;SDS011;18708;53.124;23.190;2024-03-29T00:30:10;14.63;;;11.05;;
32214;SDS011;18708;53.124;23.190;2024-03-29T00:32:37;11.00;;;9.65;;
32214;SDS011;18708;53.124;23.190;2024-03-29T00:35:02;11.80;;;9.02;;
32214;SDS011;18708;53.124;23.190;2024-03-29T00:37:28;15.10;;;12.20;;
32214;SDS011;18708;53.124;23.190;2024-03-29T00:39:54;14.25;;;11.38;;
32214;SDS011;18708;53.124;23.190;2024-03-29T00:42:20;14.48;;;10.80;;
32214;SDS011;18708;53.124;23.190;2024-03-29T00:44:46;17.67;;;11.93;;
32214;SDS011;18708;53.124;23.190;2024-03-29T00:47:12;15.20;;;10.38;;
32214;SDS011;18708;53.124;23.190;2024-03-29T00:49:38;18.48;;;12.00;;
32214;SDS011;18708;53.124;23.190;2024-03-29T00:52:04;14.23;;;11.82;;
32214;SDS011;18708;53.124;23.190;2024-03-29T00:54:30;12.48;;;9.85;;
32214;SDS011;18708;53.124;23.190;2024-03-29T00:56:59;15.55;;;9.43;;
32214;SDS011;18708;53.124;23.190;2024-03-29T00:59:25;13.60;;;11.00;;
32214;SDS011;18708;53.124;23.190;2024-03-29T01:01:50;16.30;;;12.70;;
32214;SDS011;18708;53.124;23.190;2024-03-29T01:04:16;15.40;;;12.10;;
32214;SDS011;18708;53.124;23.190;2024-03-29T01:06:44;12.63;;;9.55;;
32214;SDS011;18708;53.124;23.190;2024-03-29T01:09:10;13.00;;;10.05;;
32214;SDS011;18708;53.124;23.190;2024-03-29T01:11:36;14.32;;;10.57;;
32214;SDS011;18708;53.124;23.190;2024-03-29T01:14:05;13.98;;;11.85;;
32214;SDS011;18708;53.124;23.190;2024-03-29T01:16:31;17.27;;;12.13;;
32214;SDS011;18708;53.124;23.190;2024-03-29T01:18:57;11.82;;;9.45;;
32214;SDS011;18708;53.124;23.190;2024-03-29T01:21:23;11.02;;;9.20;;
32214;SDS011;18708;53.124;23.190;2024-03-29T01:23:49;18.52;;;12.45;;
32214;SDS011;18708;53.124;23.190;2024-03-29T01:26:15;14.98;;;11.18;;
32214;SDS011;18708;53.124;23.190;2024-03-29T01:28:42;13.05;;;10.30;;
32214;SDS011;18708;53.124;23.190;2024-03-29T01:31:08;11.45;;;10.18;;
32214;SDS011;18708;53.124;23.190;2024-03-29T01:33:34;12.07;;;9.75;;
32214;SDS011;18708;53.124;23.190;2024-03-29T01:36:03;11.52;;;9.50;;
32214;SDS011;18708;53.124;23.190;2024-03-29T01:38:29;12.48;;;9.23;;
32214;SDS011;18708;53.124;23.190;2024-03-29T01:40:55;10.82;;;8.90;;
32214;SDS011;18708;53.124;23.190;2024-03-29T01:43:21;11.95;;;8.48;;
32214;SDS011;18708;53.124;23.190;2024-03-29T01:45:47;12.85;;;9.68;;
32214;SDS011;18708;53.124;23.190;2024-03-29T01:48:16;11.30;;;9.02;;
32214;SDS011;18708;53.124;23.190;2024-03-29T01:50:43;10.63;;;8.40;;
32214;SDS011;18708;53.124;23.190;2024-03-29T01:53:09;12.65;;;8.73;;
32214;SDS011;18708;53.124;23.190;2024-03-29T01:55:36;11.43;;;9.35;;
32214;SDS011;18708;53.124;23.190;2024-03-29T01:58:02;11.38;;;9.93;;
32214;SDS011;18708;53.124;23.190;2024-03-29T02:00:29;15.20;;;11.55;;
32214;SDS011;18708;53.124;23.190;2024-03-29T02:02:58;15.25;;;11.82;;
32214;SDS011;18708;53.124;23.190;2024-03-29T02:05:24;12.27;;;10.30;;
32214;SDS011;18708;53.124;23.190;2024-03-29T02:07:51;13.40;;;10.07;;
32214;SDS011;18708;53.124;23.190;2024-03-29T02:10:17;13.93;;;10.32;;
32214;SDS011;18708;53.124;23.190;2024-03-29T02:12:43;15.90;;;12.48;;
32214;SDS011;18708;53.124;23.190;2024-03-29T02:15:14;14.55;;;11.02;;
32214;SDS011;18708;53.124;23.190;2024-03-29T02:17:41;17.38;;;13.07;;
32214;SDS011;18708;53.124;23.190;2024-03-29T02:20:07;21.55;;;14.57;;
32214;SDS011;18708;53.124;23.190;2024-03-29T02:22:33;13.02;;;11.18;;
32214;SDS011;18708;53.124;23.190;2024-03-29T02:25:06;13.77;;;10.65;;
32214;SDS011;18708;53.124;23.190;2024-03-29T02:27:32;15.63;;;9.73;;
32214;SDS011;18708;53.124;23.190;2024-03-29T02:29:57;12.20;;;8.93;;
32214;SDS011;18708;53.124;23.190;2024-03-29T02:32:23;14.23;;;10.57;;
32214;SDS011;18708;53.124;23.190;2024-03-29T02:34:49;17.00;;;12.70;;
32214;SDS011;18708;53.124;23.190;2024-03-29T02:37:14;16.63;;;11.82;;
32214;SDS011;18708;53.124;23.190;2024-03-29T02:39:40;17.45;;;12.40;;
32214;SDS011;18708;53.124;23.190;2024-03-29T02:42:06;18.30;;;12.98;;
32214;SDS011;18708;53.124;23.190;2024-03-29T02:44:31;20.88;;;14.43;;
32214;SDS011;18708;53.124;23.190;2024-03-29T02:46:57;17.50;;;13.10;;
32214;SDS011;18708;53.124;23.190;2024-03-29T02:49:23;20.02;;;15.13;;
32214;SDS011;18708;53.124;23.190;2024-03-29T02:51:48;20.70;;;15.20;;
32214;SDS011;18708;53.124;23.190;2024-03-29T02:54:17;21.00;;;15.38;;
32214;SDS011;18708;53.124;23.190;2024-03-29T02:56:43;21.75;;;16.52;;
32214;SDS011;18708;53.124;23.190;2024-03-29T02:59:09;20.20;;;15.20;;
32214;SDS011;18708;53.124;23.190;2024-03-29T03:01:34;24.52;;;17.05;;
32214;SDS011;18708;53.124;23.190;2024-03-29T03:04:00;19.13;;;14.85;;
32214;SDS011;18708;53.124;23.190;2024-03-29T03:06:26;23.15;;;15.98;;
32214;SDS011;18708;53.124;23.190;2024-03-29T03:08:51;21.23;;;15.82;;
32214;SDS011;18708;53.124;23.190;2024-03-29T03:11:36;21.95;;;16.00;;
32214;SDS011;18708;53.124;23.190;2024-03-29T03:14:01;21.77;;;17.52;;
32214;SDS011;18708;53.124;23.190;2024-03-29T03:16:27;22.60;;;16.92;;
32214;SDS011;18708;53.124;23.190;2024-03-29T03:18:52;25.05;;;16.23;;
32214;SDS011;18708;53.124;23.190;2024-03-29T03:21:18;23.55;;;17.58;;
32214;SDS011;18708;53.124;23.190;2024-03-29T03:23:44;22.98;;;16.75;;
32214;SDS011;18708;53.124;23.190;2024-03-29T03:26:09;21.48;;;15.18;;
32214;SDS011;18708;53.124;23.190;2024-03-29T03:28:35;21.00;;;14.82;;
32214;SDS011;18708;53.124;23.190;2024-03-29T03:31:01;19.20;;;13.95;;
32214;SDS011;18708;53.124;23.190;2024-03-29T03:33:26;20.08;;;14.63;;
32214;SDS011;18708;53.124;23.190;2024-03-29T03:35:52;20.60;;;15.02;;
32214;SDS011;18708;53.124;23.190;2024-03-29T03:38:18;16.77;;;13.68;;
32214;SDS011;18708;53.124;23.190;2024-03-29T03:40:43;19.63;;;14.15;;
32214;SDS011;18708;53.124;23.190;2024-03-29T03:43:09;17.58;;;14.40;;
32214;SDS011;18708;53.124;23.190;2024-03-29T03:45:35;18.88;;;13.82;;
32214;SDS011;18708;53.124;23.190;2024-03-29T03:48:06;16.52;;;13.70;;
32214;SDS011;18708;53.124;23.190;2024-03-29T03:50:32;19.90;;;14.32;;
32214;SDS011;18708;53.124;23.190;2024-03-29T03:52:58;18.85;;;13.93;;
32214;SDS011;18708;53.124;23.190;2024-03-29T03:55:27;20.48;;;13.20;;
32214;SDS011;18708;53.124;23.190;2024-03-29T03:57:52;20.25;;;14.50;;
32214;SDS011;18708;53.124;23.190;2024-03-29T04:00:19;16.45;;;12.38;;
32214;SDS011;18708;53.124;23.190;2024-03-29T04:02:51;16.20;;;12.20;;
32214;SDS011;18708;53.124;23.190;2024-03-29T04:05:18;15.57;;;11.70;;
32214;SDS011;18708;53.124;23.190;2024-03-29T04:07:44;18.48;;;12.27;;
32214;SDS011;18708;53.124;23.190;2024-03-29T04:10:11;14.48;;;11.63;;
32214;SDS011;18708;53.124;23.190;2024-03-29T04:12:37;15.43;;;13.05;;
32214;SDS011;18708;53.124;23.190;2024-03-29T04:15:03;17.80;;;12.95;;
32214;SDS011;18708;53.124;23.190;2024-03-29T04:17:29;16.05;;;12.38;;
32214;SDS011;18708;53.124;23.190;2024-03-29T04:19:57;18.77;;;14.05;;
32214;SDS011;18708;53.124;23.190;2024-03-29T04:22:23;14.85;;;11.95;;
32214;SDS011;18708;53.124;23.190;2024-03-29T04:24:49;15.63;;;12.38;;
32214;SDS011;18708;53.124;23.190;2024-03-29T04:27:15;15.60;;;11.60;;
32214;SDS011;18708;53.124;23.190;2024-03-29T04:29:41;14.85;;;12.07;;
32214;SDS011;18708;53.124;23.190;2024-03-29T04:32:07;16.58;;;13.20;;
32214;SDS011;18708;53.124;23.190;2024-03-29T04:34:33;15.73;;;12.25;;
32214;SDS011;18708;53.124;23.190;2024-03-29T04:36:59;15.60;;;12.23;;
32214;SDS011;18708;53.124;23.190;2024-03-29T04:39:25;16.98;;;11.88;;
32214;SDS011;18708;53.124;23.190;2024-03-29T04:41:52;19.35;;;11.45;;
32214;SDS011;18708;53.124;23.190;2024-03-29T04:44:24;16.10;;;11.65;;
32214;SDS011;18708;53.124;23.190;2024-03-29T04:46:51;15.75;;;12.35;;
32214;SDS011;18708;53.124;23.190;2024-03-29T04:49:21;16.00;;;12.27;;
32214;SDS011;18708;53.124;23.190;2024-03-29T04:51:54;16.92;;;12.13;;
32214;SDS011;18708;53.124;23.190;2024-03-29T04:54:19;16.02;;;11.80;;
32214;SDS011;18708;53.124;23.190;2024-03-29T04:56:45;16.25;;;11.25;;
32214;SDS011;18708;53.124;23.190;2024-03-29T04:59:11;18.42;;;11.02;;
32214;SDS011;18708;53.124;23.190;2024-03-29T05:01:37;18.08;;;11.80;;
32214;SDS011;18708;53.124;23.190;2024-03-29T05:04:04;16.05;;;10.85;;
32214;SDS011;18708;53.124;23.190;2024-03-29T05:06:31;17.20;;;12.60;;
32214;SDS011;18708;53.124;23.190;2024-03-29T05:08:57;16.55;;;11.52;;
32214;SDS011;18708;53.124;23.190;2024-03-29T05:11:22;14.23;;;11.20;;
32214;SDS011;18708;53.124;23.190;2024-03-29T05:13:48;15.38;;;10.57;;
32214;SDS011;18708;53.124;23.190;2024-03-29T05:16:14;11.50;;;9.40;;
32214;SDS011;18708;53.124;23.190;2024-03-29T05:18:40;13.50;;;10.77;;
32214;SDS011;18708;53.124;23.190;2024-03-29T05:21:06;14.13;;;11.07;;
32214;SDS011;18708;53.124;23.190;2024-03-29T05:23:31;15.13;;;10.98;;
32214;SDS011;18708;53.124;23.190;2024-03-29T05:25:58;17.52;;;11.30;;
32214;SDS011;18708;53.124;23.190;2024-03-29T05:28:23;13.55;;;10.10;;
32214;SDS011;18708;53.124;23.190;2024-03-29T05:30:49;12.77;;;10.35;;
32214;SDS011;18708;53.124;23.190;2024-03-29T05:33:15;14.02;;;10.45;;
32214;SDS011;18708;53.124;23.190;2024-03-29T05:35:41;15.00;;;10.80;;
32214;SDS011;18708;53.124;23.190;2024-03-29T05:38:07;13.23;;;10.05;;
32214;SDS011;18708;53.124;23.190;2024-03-29T05:40:33;12.63;;;10.02;;
32214;SDS011;18708;53.124;23.190;2024-03-29T05:42:58;16.75;;;11.88;;
32214;SDS011;18708;53.124;23.190;2024-03-29T05:45:26;13.30;;;10.23;;
32214;SDS011;18708;53.124;23.190;2024-03-29T05:47:56;14.50;;;10.55;;
32214;SDS011;18708;53.124;23.190;2024-03-29T05:50:23;14.90;;;10.63;;
32214;SDS011;18708;53.124;23.190;2024-03-29T05:52:50;15.75;;;11.20;;
32214;SDS011;18708;53.124;23.190;2024-03-29T05:55:18;14.75;;;11.18;;
32214;SDS011;18708;53.124;23.190;2024-03-29T05:57:44;13.65;;;10.40;;
32214;SDS011;18708;53.124;23.190;2024-03-29T06:00:11;14.05;;;9.18;;
32214;SDS011;18708;53.124;23.190;2024-03-29T06:02:41;10.82;;;9.10;;
32214;SDS011;18708;53.124;23.190;2024-03-29T06:05:08;10.73;;;8.40;;
32214;SDS011;18708;53.124;23.190;2024-03-29T06:07:34;12.52;;;8.25;;
32214;SDS011;18708;53.124;23.190;2024-03-29T06:10:00;12.80;;;8.02;;
32214;SDS011;18708;53.124;23.190;2024-03-29T06:12:29;13.80;;;10.02;;
32214;SDS011;18708;53.124;23.190;2024-03-29T06:14:55;11.15;;;8.27;;
32214;SDS011;18708;53.124;23.190;2024-03-29T06:17:40;9.05;;;7.93;;
32214;SDS011;18708;53.124;23.190;2024-03-29T06:20:05;11.82;;;7.32;;
32214;SDS011;18708;53.124;23.190;2024-03-29T06:22:32;10.85;;;7.63;;
32214;SDS011;18708;53.124;23.190;2024-03-29T06:24:58;9.55;;;6.97;;
32214;SDS011;18708;53.124;23.190;2024-03-29T06:27:29;9.00;;;7.07;;
32214;SDS011;18708;53.124;23.190;2024-03-29T06:29:55;9.75;;;6.97;;
32214;SDS011;18708;53.124;23.190;2024-03-29T06:32:21;13.77;;;9.45;;
32214;SDS011;18708;53.124;23.190;2024-03-29T06:34:47;9.98;;;7.32;;
32214;SDS011;18708;53.124;23.190;2024-03-29T06:37:13;17.35;;;11.00;;
32214;SDS011;18708;53.124;23.190;2024-03-29T06:39:39;9.45;;;7.03;;
32214;SDS011;18708;53.124;23.190;2024-03-29T06:42:07;16.83;;;11.50;;
32214;SDS011;18708;53.124;23.190;2024-03-29T06:44:35;12.80;;;9.75;;
32214;SDS011;18708;53.124;23.190;2024-03-29T06:47:04;9.55;;;6.57;;
32214;SDS011;18708;53.124;23.190;2024-03-29T06:49:30;10.40;;;6.60;;
32214;SDS011;18708;53.124;23.190;2024-03-29T06:51:57;9.63;;;6.10;;
32214;SDS011;18708;53.124;23.190;2024-03-29T06:54:26;6.97;;;6.00;;
32214;SDS011;18708;53.124;23.190;2024-03-29T06:56:53;11.98;;;5.85;;
32214;SDS011;18708;53.124;23.190;2024-03-29T06:59:19;8.80;;;6.50;;
32214;SDS011;18708;53.124;23.190;2024-03-29T07:01:45;9.68;;;6.75;;
32214;SDS011;18708;53.124;23.190;2024-03-29T07:04:12;8.55;;;6.50;;
32214;SDS011;18708;53.124;23.190;2024-03-29T07:06:39;8.55;;;6.07;;
32214;SDS011;18708;53.124;23.190;2024-03-29T07:09:07;8.73;;;6.10;;
32214;SDS011;18708;53.124;23.190;2024-03-29T07:11:34;10.02;;;6.05;;
32214;SDS011;18708;53.124;23.190;2024-03-29T07:14:00;6.85;;;5.80;;
32214;SDS011;18708;53.124;23.190;2024-03-29T07:16:26;7.60;;;6.20;;
32214;SDS011;18708;53.124;23.190;2024-03-29T07:18:52;8.52;;;5.70;;
32214;SDS011;18708;53.124;23.190;2024-03-29T07:21:17;9.25;;;6.30;;
32214;SDS011;18708;53.124;23.190;2024-03-29T07:23:43;8.60;;;5.55;;
32214;SDS011;18708;53.124;23.190;2024-03-29T07:26:09;9.55;;;6.53;;
32214;SDS011;18708;53.124;23.190;2024-03-29T07:28:36;8.93;;;5.82;;
32214;SDS011;18708;53.124;23.190;2024-03-29T07:31:06;12.90;;;8.43;;
32214;SDS011;18708;53.124;23.190;2024-03-29T07:33:33;24.27;;;14.93;;
32214;SDS011;18708;53.124;23.190;2024-03-29T07:35:59;7.45;;;5.18;;
32214;SDS011;18708;53.124;23.190;2024-03-29T07:38:25;12.38;;;9.32;;
32214;SDS011;18708;53.124;23.190;2024-03-29T07:40:51;9.32;;;7.60;;
32214;SDS011;18708;53.124;23.190;2024-03-29T07:43:20;10.02;;;6.07;;
32214;SDS011;18708;53.124;23.190;2024-03-29T07:45:49;10.57;;;7.57;;
32214;SDS011;18708;53.124;23.190;2024-03-29T07:48:17;7.25;;;5.45;;
32214;SDS011;18708;53.124;23.190;2024-03-29T07:50:43;9.13;;;5.72;;
32214;SDS011;18708;53.124;23.190;2024-03-29T07:53:10;6.88;;;4.65;;
32214;SDS011;18708;53.124;23.190;2024-03-29T07:55:37;6.78;;;4.82;;
32214;SDS011;18708;53.124;23.190;2024-03-29T07:58:04;7.55;;;4.68;;
32214;SDS011;18708;53.124;23.190;2024-03-29T08:00:33;6.70;;;5.07;;
32214;SDS011;18708;53.124;23.190;2024-03-29T08:03:00;6.78;;;4.78;;
32214;SDS011;18708;53.124;23.190;2024-03-29T08:05:29;11.57;;;4.93;;
32214;SDS011;18708;53.124;23.190;2024-03-29T08:07:55;7.72;;;3.70;;
32214;SDS011;18708;53.124;23.190;2024-03-29T08:10:21;5.68;;;3.78;;
32214;SDS011;18708;53.124;23.190;2024-03-29T08:12:46;7.30;;;4.53;;
32214;SDS011;18708;53.124;23.190;2024-03-29T08:15:12;7.53;;;5.30;;
32214;SDS011;18708;53.124;23.190;2024-03-29T08:17:38;4.93;;;3.58;;
32214;SDS011;18708;53.124;23.190;2024-03-29T08:20:04;12.40;;;7.57;;
32214;SDS011;18708;53.124;23.190;2024-03-29T08:22:30;13.35;;;8.00;;
32214;SDS011;18708;53.124;23.190;2024-03-29T08:24:58;4.57;;;3.05;;
32214;SDS011;18708;53.124;23.190;2024-03-29T08:27:25;8.38;;;3.65;;
32214;SDS011;18708;53.124;23.190;2024-03-29T08:29:51;6.20;;;4.13;;
32214;SDS011;18708;53.124;23.190;2024-03-29T08:32:17;6.40;;;3.53;;
32214;SDS011;18708;53.124;23.190;2024-03-29T08:34:43;4.80;;;3.20;;
32214;SDS011;18708;53.124;23.190;2024-03-29T08:37:09;4.93;;;3.17;;
32214;SDS011;18708;53.124;23.190;2024-03-29T08:39:35;8.48;;;3.72;;
32214;SDS011;18708;53.124;23.190;2024-03-29T08:42:02;5.32;;;3.28;;
32214;SDS011;18708;53.124;23.190;2024-03-29T08:44:33;3.83;;;2.40;;
32214;SDS011;18708;53.124;23.190;2024-03-29T08:46:59;6.85;;;2.90;;
32214;SDS011;18708;53.124;23.190;2024-03-29T08:49:28;4.18;;;3.03;;
32214;SDS011;18708;53.124;23.190;2024-03-29T08:51:54;6.35;;;3.28;;
32214;SDS011;18708;53.124;23.190;2024-03-29T08:54:20;11.88;;;5.93;;
32214;SDS011;18708;53.124;23.190;2024-03-29T08:56:47;4.45;;;3.08;;
32214;SDS011;18708;53.124;23.190;2024-03-29T08:59:12;4.88;;;2.88;;
32214;SDS011;18708;53.124;23.190;2024-03-29T09:01:41;7.10;;;4.85;;
32214;SDS011;18708;53.124;23.190;2024-03-29T09:04:09;5.95;;;3.17;;
32214;SDS011;18708;53.124;23.190;2024-03-29T09:06:36;8.05;;;4.25;;
32214;SDS011;18708;53.124;23.190;2024-03-29T09:09:03;7.95;;;4.55;;
32214;SDS011;18708;53.124;23.190;2024-03-29T09:11:30;11.43;;;6.57;;
32214;SDS011;18708;53.124;23.190;2024-03-29T09:13:55;7.95;;;4.60;;
32214;SDS011;18708;53.124;23.190;2024-03-29T09:16:23;5.75;;;4.10;;
32214;SDS011;18708;53.124;23.190;2024-03-29T09:18:54;4.03;;;2.88;;
32214;SDS011;18708;53.124;23.190;2024-03-29T09:21:19;5.43;;;4.25;;
32214;SDS011;18708;53.124;23.190;2024-03-29T09:23:45;12.85;;;5.55;;
32214;SDS011;18708;53.124;23.190;2024-03-29T09:26:11;3.65;;;2.33;;
32214;SDS011;18708;53.124;23.190;2024-03-29T09:28:39;6.60;;;3.35;;
32214;SDS011;18708;53.124;23.190;2024-03-29T09:31:05;4.68;;;3.70;;
32214;SDS011;18708;53.124;23.190;2024-03-29T09:33:30;4.00;;;3.08;;
32214;SDS011;18708;53.124;23.190;2024-03-29T09:35:56;7.18;;;2.80;;
32214;SDS011;18708;53.124;23.190;2024-03-29T09:38:23;2.55;;;1.85;;
32214;SDS011;18708;53.124;23.190;2024-03-29T09:40:59;2.80;;;1.77;;
32214;SDS011;18708;53.124;23.190;2024-03-29T09:43:44;6.30;;;3.00;;
32214;SDS011;18708;53.124;23.190;2024-03-29T09:46:11;7.32;;;3.33;;
32214;SDS011;18708;53.124;23.190;2024-03-29T09:48:40;4.25;;;2.42;;
32214;SDS011;18708;53.124;23.190;2024-03-29T09:51:07;2.78;;;2.30;;
32214;SDS011;18708;53.124;23.190;2024-03-29T09:53:34;7.65;;;2.30;;
32214;SDS011;18708;53.124;23.190;2024-03-29T09:56:02;6.22;;;2.65;;
32214;SDS011;18708;53.124;23.190;2024-03-29T09:58:30;4.20;;;2.28;;
32214;SDS011;18708;53.124;23.190;2024-03-29T10:00:56;2.00;;;1.60;;
32214;SDS011;18708;53.124;23.190;2024-03-29T10:03:25;4.13;;;2.28;;
32214;SDS011;18708;53.124;23.190;2024-03-29T10:05:58;5.53;;;2.30;;
32214;SDS011;18708;53.124;23.190;2024-03-29T10:08:28;7.10;;;2.40;;
32214;SDS011;18708;53.124;23.190;2024-03-29T10:10:55;2.85;;;2.20;;
32214;SDS011;18708;53.124;23.190;2024-03-29T10:13:22;5.72;;;2.47;;
32214;SDS011;18708;53.124;23.190;2024-03-29T10:15:51;3.88;;;2.13;;
32214;SDS011;18708;53.124;23.190;2024-03-29T10:18:20;5.28;;;1.80;;
32214;SDS011;18708;53.124;23.190;2024-03-29T10:21:00;4.07;;;1.90;;
32214;SDS011;18708;53.124;23.190;2024-03-29T10:23:27;2.38;;;1.60;;
32214;SDS011;18708;53.124;23.190;2024-03-29T10:25:53;2.25;;;1.90;;
32214;SDS011;18708;53.124;23.190;2024-03-29T10:28:19;5.85;;;3.95;;
32214;SDS011;18708;53.124;23.190;2024-03-29T10:30:45;5.18;;;2.20;;
32214;SDS011;18708;53.124;23.190;2024-03-29T10:33:14;5.53;;;1.88;;
32214;SDS011;18708;53.124;23.190;2024-03-29T10:35:41;3.78;;;2.78;;
32214;SDS011;18708;53.124;23.190;2024-03-29T10:38:09;4.13;;;2.05;;
32214;SDS011;18708;53.124;23.190;2024-03-29T10:40:36;3.10;;;1.83;;
32214;SDS011;18708;53.124;23.190;2024-03-29T10:43:03;4.55;;;2.45;;
32214;SDS011;18708;53.124;23.190;2024-03-29T10:45:34;3.58;;;1.83;;
32214;SDS011;18708;53.124;23.190;2024-03-29T10:48:02;2.92;;;2.03;;
32214;SDS011;18708;53.124;23.190;2024-03-29T10:50:29;5.22;;;1.80;;
32214;SDS011;18708;53.124;23.190;2024-03-29T10:52:58;3.58;;;2.00;;
32214;SDS011;18708;53.124;23.190;2024-03-29T10:55:27;2.63;;;1.60;;
32214;SDS011;18708;53.124;23.190;2024-03-29T10:57:55;5.85;;;1.88;;
32214;SDS011;18708;53.124;23.190;2024-03-29T11:00:25;5.97;;;2.00;;
32214;SDS011;18708;53.124;23.190;2024-03-29T11:05:41;2.08;;;1.70;;
32214;SDS011;18708;53.124;23.190;2024-03-29T11:08:12;1.93;;;1.20;;
32214;SDS011;18708;53.124;23.190;2024-03-29T11:10:44;4.53;;;1.80;;
32214;SDS011;18708;53.124;23.190;2024-03-29T11:16:12;5.80;;;3.85;;
32214;SDS011;18708;53.124;23.190;2024-03-29T11:18:40;6.78;;;5.05;;
32214;SDS011;18708;53.124;23.190;2024-03-29T11:21:07;5.22;;;2.40;;
32214;SDS011;18708;53.124;23.190;2024-03-29T11:23:35;8.20;;;4.80;;
32214;SDS011;18708;53.124;23.190;2024-03-29T11:26:00;4.78;;;2.55;;
32214;SDS011;18708;53.124;23.190;2024-03-29T11:28:30;4.30;;;3.17;;
32214;SDS011;18708;53.124;23.190;2024-03-29T11:30:59;5.07;;;2.28;;
32214;SDS011;18708;53.124;23.190;2024-03-29T11:35:57;2.55;;;1.67;;
32214;SDS011;18708;53.124;23.190;2024-03-29T11:38:33;3.10;;;1.60;;
32214;SDS011;18708;53.124;23.190;2024-03-29T11:41:03;2.17;;;1.50;;
32214;SDS011;18708;53.124;23.190;2024-03-29T11:43:30;3.25;;;1.60;;
32214;SDS011;18708;53.124;23.190;2024-03-29T11:45:57;5.03;;;1.52;;
32214;SDS011;18708;53.124;23.190;2024-03-29T11:48:26;2.30;;;1.80;;
32214;SDS011;18708;53.124;23.190;2024-03-29T11:50:53;3.60;;;1.50;;
32214;SDS011;18708;53.124;23.190;2024-03-29T11:53:19;3.60;;;1.90;;
32214;SDS011;18708;53.124;23.190;2024-03-29T11:55:45;2.53;;;1.52;;
32214;SDS011;18708;53.124;23.190;2024-03-29T11:58:11;4.13;;;1.70;;
32214;SDS011;18708;53.124;23.190;2024-03-29T12:00:38;2.45;;;1.50;;
32214;SDS011;18708;53.124;23.190;2024-03-29T12:03:05;3.30;;;1.70;;
32214;SDS011;18708;53.124;23.190;2024-03-29T12:05:32;2.58;;;1.48;;
32214;SDS011;18708;53.124;23.190;2024-03-29T12:07:58;4.13;;;1.30;;
32214;SDS011;18708;53.124;23.190;2024-03-29T12:10:27;3.35;;;1.48;;
32214;SDS011;18708;53.124;23.190;2024-03-29T12:12:57;2.95;;;1.73;;
32214;SDS011;18708;53.124;23.190;2024-03-29T12:15:24;2.67;;;1.38;;
32214;SDS011;18708;53.124;23.190;2024-03-29T12:17:54;3.38;;;1.67;;
32214;SDS011;18708;53.124;23.190;2024-03-29T12:20:23;1.92;;;1.67;;
32214;SDS011;18708;53.124;23.190;2024-03-29T12:22:49;5.53;;;1.83;;
32214;SDS011;18708;53.124;23.190;2024-03-29T12:25:15;3.42;;;1.40;;
32214;SDS011;18708;53.124;23.190;2024-03-29T12:27:42;2.13;;;1.13;;
32214;SDS011;18708;53.124;23.190;2024-03-29T12:30:09;5.88;;;1.52;;
32214;SDS011;18708;53.124;23.190;2024-03-29T12:32:35;2.63;;;1.10;;
32214;SDS011;18708;53.124;23.190;2024-03-29T12:35:07;4.63;;;1.40;;
32214;SDS011;18708;53.124;23.190;2024-03-29T12:37:34;2.13;;;1.30;;
32214;SDS011;18708;53.124;23.190;2024-03-29T12:40:00;2.42;;;1.90;;
32214;SDS011;18708;53.124;23.190;2024-03-29T12:42:30;5.10;;;2.00;;
32214;SDS011;18708;53.124;23.190;2024-03-29T12:44:56;5.93;;;2.22;;
32214;SDS011;18708;53.124;23.190;2024-03-29T12:47:22;4.15;;;1.42;;
32214;SDS011;18708;53.124;23.190;2024-03-29T12:49:48;2.17;;;1.30;;
32214;SDS011;18708;53.124;23.190;2024-03-29T12:52:13;3.47;;;1.70;;
32214;SDS011;18708;53.124;23.190;2024-03-29T12:54:39;4.95;;;1.70;;
32214;SDS011;18708;53.124;23.190;2024-03-29T12:57:05;3.85;;;1.58;;
32214;SDS011;18708;53.124;23.190;2024-03-29T12:59:33;3.83;;;1.35;;
32214;SDS011;18708;53.124;23.190;2024-03-29T13:01:59;3.30;;;1.20;;
32214;SDS011;18708;53.124;23.190;2024-03-29T13:04:25;1.30;;;1.20;;
32214;SDS011;18708;53.124;23.190;2024-03-29T13:06:51;2.42;;;1.60;;
32214;SDS011;18708;53.124;23.190;2024-03-29T13:09:17;2.00;;;1.10;;
32214;SDS011;18708;53.124;23.190;2024-03-29T13:11:42;2.67;;;1.10;;
32214;SDS011;18708;53.124;23.190;2024-03-29T13:14:08;1.60;;;1.10;;
32214;SDS011;18708;53.124;23.190;2024-03-29T13:16:34;1.48;;;1.05;;
32214;SDS011;18708;53.124;23.190;2024-03-29T13:19:00;3.08;;;1.27;;
32214;SDS011;18708;53.124;23.190;2024-03-29T13:21:25;4.00;;;1.35;;
32214;SDS011;18708;53.124;23.190;2024-03-29T13:23:51;5.35;;;1.88;;
32214;SDS011;18708;53.124;23.190;2024-03-29T13:26:16;3.00;;;1.55;;
32214;SDS011;18708;53.124;23.190;2024-03-29T13:28:42;5.45;;;2.13;;
32214;SDS011;18708;53.124;23.190;2024-03-29T13:31:08;1.77;;;1.10;;
32214;SDS011;18708;53.124;23.190;2024-03-29T13:33:33;3.78;;;1.08;;
32214;SDS011;18708;53.124;23.190;2024-03-29T13:36:00;1.85;;;1.40;;
32214;SDS011;18708;53.124;23.190;2024-03-29T13:38:25;1.98;;;1.17;;
32214;SDS011;18708;53.124;23.190;2024-03-29T13:40:52;2.53;;;1.30;;
32214;SDS011;18708;53.124;23.190;2024-03-29T13:43:18;2.42;;;1.10;;
32214;SDS011;18708;53.124;23.190;2024-03-29T13:45:44;3.83;;;1.67;;
32214;SDS011;18708;53.124;23.190;2024-03-29T13:48:10;3.38;;;1.38;;
32214;SDS011;18708;53.124;23.190;2024-03-29T13:50:35;2.95;;;1.30;;
32214;SDS011;18708;53.124;23.190;2024-03-29T13:53:01;3.70;;;1.10;;
32214;SDS011;18708;53.124;23.190;2024-03-29T13:55:29;2.72;;;1.00;;
32214;SDS011;18708;53.124;23.190;2024-03-29T13:57:54;1.63;;;0.90;;
32214;SDS011;18708;53.124;23.190;2024-03-29T14:00:20;2.42;;;1.20;;
32214;SDS011;18708;53.124;23.190;2024-03-29T14:02:46;1.70;;;1.20;;
32214;SDS011;18708;53.124;23.190;2024-03-29T14:05:12;1.30;;;1.05;;
32214;SDS011;18708;53.124;23.190;2024-03-29T14:07:38;4.10;;;1.40;;
32214;SDS011;18708;53.124;23.190;2024-03-29T14:10:05;3.90;;;1.40;;
32214;SDS011;18708;53.124;23.190;2024-03-29T14:12:31;2.22;;;1.40;;
32214;SDS011;18708;53.124;23.190;2024-03-29T14:14:58;4.20;;;1.30;;
32214;SDS011;18708;53.124;23.190;2024-03-29T14:17:24;3.63;;;1.33;;
32214;SDS011;18708;53.124;23.190;2024-03-29T14:19:51;0.85;;;0.70;;
32214;SDS011;18708;53.124;23.190;2024-03-29T14:22:17;2.15;;;0.88;;
32214;SDS011;18708;53.124;23.190;2024-03-29T14:24:44;3.97;;;1.35;;
32214;SDS011;18708;53.124;23.190;2024-03-29T14:27:10;2.90;;;1.40;;
32214;SDS011;18708;53.124;23.190;2024-03-29T14:29:37;2.08;;;1.25;;